Rostein — LLHI — position and weather

sailwx.info

Track history (hours):
 
Tides and Currents Weather Stations Pressure Air Temp Water Temp Dewpoint Dewpoint Depression Visibility Wind Speed Wind Dir Waves Ship Positions

Rostein

Last reported at 2017-Aug-17 01:30 UTC. Time now 2017-Aug-17 01:48 UTC.
Position N 71°01' E 024°41'.

Length 57 m; draft 4 m.

Type: Other ship. MMSI: 257210000.

Date/timePositionNaut miles runAvg speedWind from/ knotsBaromVisibWave heightAir tempDewpointWater temp
2017-Aug-17 01:30N 71°01' E 024°41'510.7
2017-Aug-17 01:00N 70°60' E 024°56'510.4
2017-Aug-17 00:30N 70°60' E 025°12'510.0
2017-Aug-17 00:00N 70°58' E 025°27'510.0
2017-Aug-16 23:30N 70°56' E 025°41'3 6.2
2017-Aug-16 23:00N 70°59' E 025°45'0 0.0
2017-Aug-16 22:30N 70°59' E 025°45'0 0.0
2017-Aug-16 22:00N 70°59' E 025°45'2 4.3
2017-Aug-16 21:30N 70°57' E 025°45'510.8
2017-Aug-16 21:00N 70°57' E 025°29'612.3
2017-Aug-16 20:30N 70°59' E 025°11'612.6
2017-Aug-16 20:00N 70°60' E 024°52'612.8
2017-Aug-16 19:30N 71°02' E 024°32'713.0
2017-Aug-16 18:59N 70°57' E 024°18'613.0
2017-Aug-16 18:30N 70°53' E 024°04'612.5
2017-Aug-16 18:00N 70°48' E 023°49'612.2
2017-Aug-16 17:30N 70°44' E 023°36'4 8.8
2017-Aug-16 17:00N 70°40' E 023°39'1 1.3
2017-Aug-16 16:30N 70°40' E 023°40'0 0.0
2017-Aug-16 16:00N 70°40' E 023°40'0 0.0
2017-Aug-16 15:30N 70°40' E 023°40'0 0.4
2017-Aug-16 15:00N 70°40' E 023°40'510.9
2017-Aug-16 14:30N 70°39' E 023°24'510.8
2017-Aug-16 14:00N 70°36' E 023°10'611.4
2017-Aug-16 13:30N 70°32' E 022°59'611.2
2017-Aug-16 13:00N 70°30' E 022°44'612.0
2017-Aug-16 12:30N 70°28' E 022°26'611.9
2017-Aug-16 12:00N 70°26' E 022°09'611.9
2017-Aug-16 11:30N 70°25' E 021°52'611.4
2017-Aug-16 11:00N 70°22' E 021°36'611.8
2017-Aug-16 10:30N 70°18' E 021°25'611.6
2017-Aug-16 10:00N 70°14' E 021°12'510.6
2017-Aug-16 09:30N 70°09' E 021°17'612.2
2017-Aug-16 09:00N 70°05' E 021°30'611.5
2017-Aug-16 08:30N 70°03' E 021°46'2 1.8
2017-Aug-16 07:14N 70°04' E 021°53'2 7.6
2017-Aug-16 07:00N 70°03' E 021°48'5 9.9
2017-Aug-16 06:29N 69°58' E 021°50'4 2.6
2017-Aug-16 05:05N 69°54' E 021°52'0 0.0
2017-Aug-16 05:00N 69°54' E 021°52'4 8.4
2017-Aug-16 04:30N 69°57' E 021°44'612.2
2017-Aug-16 04:00N 70°01' E 021°30'612.5
2017-Aug-16 03:30N 70°06' E 021°17'611.7
2017-Aug-16 03:00N 70°11' E 021°10'510.0
2017-Aug-16 02:30N 70°16' E 021°15'611.8
2017-Aug-16 02:00N 70°19' E 021°29'611.9
2017-Aug-16 01:30N 70°24' E 021°41'5 9.4
2017-Aug-16 01:00N 70°23' E 021°55'611.7
2017-Aug-16 00:30N 70°20' E 022°10'611.8
2017-Aug-16 00:00N 70°17' E 022°26'612.0
2017-Aug-15 23:30N 70°14' E 022°42'611.6
2017-Aug-15 23:00N 70°12' E 022°58'612.0
2017-Aug-15 22:30N 70°07' E 023°04'612.1
2017-Aug-15 22:00N 70°01' E 023°08'4 7.8
2017-Aug-15 21:30N 69°57' E 023°06'0 0.0
2017-Aug-15 21:00N 69°57' E 023°06'2 3.2
2017-Aug-15 20:30N 69°58' E 023°09'510.4
2017-Aug-15 20:00N 70°03' E 023°08'510.7
2017-Aug-15 19:30N 70°08' E 023°07'5 9.9
2017-Aug-15 19:00N 70°13' E 023°10'5 9.9
2017-Aug-15 18:30N 70°17' E 023°19'5 9.7
2017-Aug-15 18:00N 70°21' E 023°27'5 9.2
2017-Aug-15 17:30N 70°25' E 023°36'4 8.9
2017-Aug-15 17:00N 70°28' E 023°44'5 9.3
2017-Aug-15 16:27N 70°31' E 023°57'4 9.4
2017-Aug-15 16:00N 70°34' E 024°06'510.4
2017-Aug-15 15:30N 70°39' E 024°10'510.5
2017-Aug-15 15:00N 70°44' E 024°09'5 9.6
2017-Aug-15 14:30N 70°49' E 024°10'510.2
2017-Aug-15 14:00N 70°53' E 024°19'5 9.5
2017-Aug-15 13:30N 70°57' E 024°24'5 9.5
2017-Aug-15 13:00N 71°02' E 024°32'5 9.2
2017-Aug-15 12:30N 71°01' E 024°45'510.1
2017-Aug-15 11:59N 70°59' E 025°01'5 9.8
2017-Aug-15 11:30N 70°59' E 025°15'510.4
2017-Aug-15 11:00N 70°57' E 025°29'3 6.8
2017-Aug-15 10:30N 70°54' E 025°34'0 0.0
2017-Aug-15 10:00N 70°54' E 025°34'0 0.0
2017-Aug-15 09:30N 70°54' E 025°34'0 0.0
2017-Aug-15 09:00N 70°54' E 025°34'0 0.7
2017-Aug-15 08:30N 70°54' E 025°33'1 1.4
2017-Aug-15 08:00N 70°54' E 025°35'0 1.0
2017-Aug-15 07:30N 70°54' E 025°33'1 1.5
2017-Aug-15 07:00N 70°54' E 025°34'0 0.2
2017-Aug-15 06:30N 70°54' E 025°34'612.9
2017-Aug-15 06:00N 70°59' E 025°22'612.5
2017-Aug-15 05:30N 70°59' E 025°03'713.6
2017-Aug-15 05:00N 71°01' E 024°43'510.7
2017-Aug-15 04:30N 70°59' E 024°27'612.5
2017-Aug-15 04:00N 70°53' E 024°20'612.8
2017-Aug-15 03:30N 70°49' E 024°08'510.7
2017-Aug-15 03:00N 70°43' E 024°09'611.1
2017-Aug-15 02:30N 70°38' E 024°10'612.0
2017-Aug-15 02:00N 70°32' E 024°02'612.1
2017-Aug-15 01:30N 70°29' E 023°47'612.4
2017-Aug-15 01:01N 70°24' E 023°36'713.3
2017-Aug-15 00:31N 70°19' E 023°23'713.0
2017-Aug-15 00:00N 70°14' E 023°11'612.3
2017-Aug-14 23:30N 70°08' E 023°07'612.2
2017-Aug-14 23:00N 70°02' E 023°08'5 9.9
2017-Aug-14 22:30N 69°57' E 023°06'0 0.0
2017-Aug-14 22:01N 69°57' E 023°06'0 0.6
2017-Aug-14 21:30N 69°57' E 023°06'4 9.0
2017-Aug-14 21:00N 70°02' E 023°09'510.2
2017-Aug-14 20:30N 70°07' E 023°07'510.0
2017-Aug-14 20:00N 70°12' E 023°08'4 9.0
2017-Aug-14 19:30N 70°14' E 023°19'2 3.4
2017-Aug-14 19:00N 70°14' E 023°24'0 0.0
2017-Aug-14 18:30N 70°14' E 023°24'0 0.0
2017-Aug-14 18:00N 70°14' E 023°24'0 0.0
2017-Aug-14 17:30N 70°14' E 023°24'0 0.0
2017-Aug-14 17:00N 70°14' E 023°24'0 0.0
2017-Aug-14 16:30N 70°14' E 023°24'0 0.0
2017-Aug-14 16:00N 70°14' E 023°24'0 0.3
2017-Aug-14 15:31N 70°14' E 023°25'19 7.8
2017-Aug-14 13:07N 69°57' E 023°06'0 0.1
2017-Aug-14 13:00N 69°57' E 023°06'0 0.0
2017-Aug-14 12:30N 69°57' E 023°06'2 3.9
2017-Aug-14 12:00N 69°58' E 023°09'510.2
2017-Aug-14 11:30N 70°03' E 023°08'5 9.9
2017-Aug-14 11:00N 70°08' E 023°07'5 9.8
2017-Aug-14 10:30N 70°13' E 023°09'510.0
2017-Aug-14 10:00N 70°17' E 023°18'510.2
2017-Aug-14 09:30N 70°21' E 023°28'510.3
2017-Aug-14 09:00N 70°25' E 023°38'510.5
2017-Aug-14 08:30N 70°29' E 023°48'510.2
2017-Aug-14 08:00N 70°32' E 024°01'510.1
2017-Aug-14 07:30N 70°36' E 024°09'510.1
2017-Aug-14 07:00N 70°41' E 024°10'510.2
2017-Aug-14 06:30N 70°46' E 024°08'5 9.6
2017-Aug-14 06:00N 70°51' E 024°09'4 8.6
2017-Aug-14 05:30N 70°55' E 024°15'5 9.0
2017-Aug-14 05:00N 70°58' E 024°23'5 9.1
2017-Aug-14 04:30N 71°02' E 024°32'5 9.1
2017-Aug-14 04:00N 71°01' E 024°46'5 9.6
2017-Aug-14 03:31N 70°59' E 024°59'4 8.0
2017-Aug-14 03:00N 70°55' E 025°02'2 4.6
2017-Aug-14 02:30N 70°53' E 024°57'0 0.0
2017-Aug-14 02:00N 70°53' E 024°57'0 0.0
2017-Aug-14 01:30N 70°53' E 024°57'4 7.5
2017-Aug-14 01:00N 70°56' E 025°04'5 9.7
2017-Aug-14 00:30N 70°60' E 024°54'611.3
2017-Aug-14 00:00N 71°01' E 024°37'610.8
2017-Aug-13 23:30N 70°59' E 024°22'511.1
2017-Aug-13 23:00N 70°55' E 024°10'611.2
2017-Aug-13 22:30N 70°51' E 023°58'611.1
2017-Aug-13 22:00N 70°47' E 023°45'611.5
2017-Aug-13 21:31N 70°44' E 023°32'611.3
2017-Aug-13 21:00N 70°40' E 023°19'611.7
2017-Aug-13 20:31N 70°36' E 023°08'611.8
2017-Aug-13 20:00N 70°31' E 022°56'611.8
2017-Aug-13 19:30N 70°29' E 022°39'612.2
2017-Aug-13 19:00N 70°27' E 022°22'611.6
2017-Aug-13 18:30N 70°26' E 022°05'611.6
2017-Aug-13 18:00N 70°24' E 021°48'611.8
2017-Aug-13 17:30N 70°21' E 021°34'612.3
2017-Aug-13 17:00N 70°17' E 021°21'611.0
2017-Aug-13 16:29N 70°13' E 021°09'611.9
2017-Aug-13 16:00N 70°08' E 021°20'611.5
2017-Aug-13 15:31N 70°04' E 021°32'510.8
2017-Aug-13 15:00N 70°03' E 021°48'2 3.2
2017-Aug-13 14:30N 70°04' E 021°53'0 0.0
2017-Aug-13 14:01N 70°04' E 021°53'3 5.5
2017-Aug-13 13:26N 70°01' E 021°47'410.2
2017-Aug-13 13:00N 69°57' E 021°50'3 2.0
2017-Aug-13 11:26N 69°54' E 021°53'0 0.6
2017-Aug-13 10:56N 69°54' E 021°52'0 0.2
2017-Aug-13 10:28N 69°54' E 021°52'4 8.5
2017-Aug-13 10:00N 69°57' E 021°44'611.4
2017-Aug-13 09:30N 70°00' E 021°31'611.5
2017-Aug-13 09:00N 70°04' E 021°17'611.3
2017-Aug-13 08:30N 70°04' E 021°01'510.2
2017-Aug-13 08:00N 70°05' E 020°46'0 0.9
2017-Aug-13 07:30N 70°05' E 020°46'1 1.1
2017-Aug-13 07:00N 70°06' E 020°46'510.1
2017-Aug-13 06:30N 70°10' E 020°53'510.3
2017-Aug-13 06:00N 70°13' E 021°05'5 9.9
2017-Aug-13 05:30N 70°16' E 021°17'5 9.7
2017-Aug-13 05:00N 70°19' E 021°28'5 9.7
2017-Aug-13 04:30N 70°23' E 021°38'4 8.8
2017-Aug-13 04:00N 70°24' E 021°50'5 9.8
2017-Aug-13 03:30N 70°25' E 022°05'510.2
2017-Aug-13 03:00N 70°25' E 022°20'510.0
2017-Aug-13 02:30N 70°25' E 022°35'5 9.5
2017-Aug-13 01:59N 70°23' E 022°49'5 9.8
2017-Aug-13 01:30N 70°20' E 022°59'2 4.3
2017-Aug-13 01:00N 70°21' E 023°05'0 0.0
2017-Aug-13 00:30N 70°21' E 023°05'0 0.0
2017-Aug-13 00:00N 70°21' E 023°05'0 0.0
2017-Aug-12 23:30N 70°21' E 023°05'4 7.7
2017-Aug-12 23:00N 70°17' E 023°02'612.6
2017-Aug-12 22:30N 70°11' E 023°05'612.5
2017-Aug-12 22:00N 70°05' E 023°07'612.3
2017-Aug-12 21:30N 69°59' E 023°09'2 4.8
2017-Aug-12 21:00N 69°57' E 023°06'0 0.0
2017-Aug-12 20:30N 69°57' E 023°06'2 4.9
2017-Aug-12 20:00N 69°59' E 023°09'510.3
2017-Aug-12 19:30N 70°04' E 023°07'510.3
2017-Aug-12 19:00N 70°09' E 023°07'510.5
2017-Aug-12 18:30N 70°14' E 023°11'510.2
2017-Aug-12 18:00N 70°18' E 023°21'5 9.8
2017-Aug-12 17:30N 70°22' E 023°30'5 9.4
2017-Aug-12 17:00N 70°26' E 023°39'5 9.1
2017-Aug-12 16:30N 70°29' E 023°48'4 8.0
2017-Aug-12 15:58N 70°31' E 023°59'5 9.6
2017-Aug-12 15:30N 70°35' E 024°07'5 9.6
2017-Aug-12 15:00N 70°39' E 024°10'510.0
2017-Aug-12 14:30N 70°44' E 024°10'5 9.8
2017-Aug-12 14:00N 70°49' E 024°08'4 8.9
2017-Aug-12 13:30N 70°53' E 024°13'5 9.2
2017-Aug-12 13:01N 70°57' E 024°21'5 9.8
2017-Aug-12 12:30N 71°01' E 024°31'5 9.6
2017-Aug-12 12:00N 71°01' E 024°45'510.7
2017-Aug-12 11:30N 70°59' E 025°01'5 9.1
2017-Aug-12 11:00N 70°54' E 024°59'1 1.9
2017-Aug-12 10:30N 70°53' E 024°57'0 0.0
2017-Aug-12 10:00N 70°53' E 024°57'0 1.0
2017-Aug-12 09:30N 70°54' E 024°58'5 9.9
2017-Aug-12 09:00N 70°59' E 025°01'510.8
2017-Aug-12 08:30N 71°00' E 024°46'510.3
2017-Aug-12 08:00N 71°01' E 024°30'611.5
2017-Aug-12 07:30N 70°57' E 024°18'611.8
2017-Aug-12 07:00N 70°53' E 024°04'611.6
2017-Aug-12 06:29N 70°49' E 023°51'611.8
2017-Aug-12 06:00N 70°46' E 023°37'612.0
2017-Aug-12 05:31N 70°42' E 023°23'612.4
2017-Aug-12 05:00N 70°37' E 023°11'612.5
2017-Aug-12 04:30N 70°32' E 022°60'611.9
2017-Aug-12 04:00N 70°30' E 022°43'510.3
2017-Aug-12 03:30N 70°28' E 022°28'5 9.7
2017-Aug-12 03:00N 70°27' E 022°14'510.0
2017-Aug-12 02:30N 70°26' E 021°60'510.1
2017-Aug-12 02:00N 70°24' E 021°45'510.1
2017-Aug-12 01:30N 70°21' E 021°33'510.3
2017-Aug-12 01:00N 70°17' E 021°23'510.4
2017-Aug-12 00:30N 70°14' E 021°10'611.8
2017-Aug-12 00:00N 70°11' E 020°56'510.9
2017-Aug-11 23:30N 70°07' E 020°46'1 3.0
2017-Aug-11 23:00N 70°05' E 020°46'0 0.0
2017-Aug-11 22:30N 70°05' E 020°46'3 6.6
2017-Aug-11 22:01N 70°03' E 020°53'2 2.9
2017-Aug-11 21:29N 70°03' E 020°57'0 0.0
2017-Aug-11 21:00N 70°03' E 020°57'4 7.5
2017-Aug-11 20:31N 70°05' E 020°48'1 2.1
2017-Aug-11 20:01N 70°05' E 020°46'0 0.1
2017-Aug-11 19:30N 70°05' E 020°46'4 9.1
2017-Aug-11 19:00N 70°03' E 020°56'0 0.6
2017-Aug-11 18:29N 70°03' E 020°57'0 0.0
2017-Aug-11 18:00N 70°03' E 020°57'2 3.6
2017-Aug-11 17:30N 70°04' E 021°00'2 3.7
2017-Aug-11 17:00N 70°02' E 020°59'0 0.0
2017-Aug-11 16:30N 70°02' E 020°59'2 3.7
2017-Aug-11 16:00N 70°04' E 020°60'611.2
2017-Aug-11 15:30N 70°02' E 020°44'511.1
2017-Aug-11 15:00N 70°01' E 020°29'611.2
2017-Aug-11 14:30N 69°59' E 020°13'1110.8
2017-Aug-11 13:30N 69°52' E 019°48'510.5
2017-Aug-11 13:01N 69°50' E 019°35'510.8
2017-Aug-11 12:30N 69°48' E 019°21'510.7
2017-Aug-11 12:00N 69°47' E 019°05'611.9
2017-Aug-11 11:30N 69°51' E 018°54'510.7
2017-Aug-11 11:00N 69°54' E 018°40'510.0
2017-Aug-11 10:30N 69°49' E 018°36'510.9
2017-Aug-11 10:00N 69°48' E 018°21'4 7.7
2017-Aug-11 09:30N 69°45' E 018°15'0 0.0
2017-Aug-11 09:00N 69°45' E 018°15'0 0.0
2017-Aug-11 08:30N 69°45' E 018°15'2 3.8
2017-Aug-11 08:00N 69°47' E 018°17'511.0
2017-Aug-11 07:31N 69°49' E 018°32'5 9.5
2017-Aug-11 07:00N 69°53' E 018°39'5 9.5
2017-Aug-11 06:30N 69°52' E 018°52'713.4
2017-Aug-11 05:59N 69°47' E 019°06'611.7
2017-Aug-11 05:29N 69°48' E 019°23'611.8
2017-Aug-11 05:00N 69°50' E 019°39'611.6
2017-Aug-11 04:30N 69°53' E 019°53'611.7
2017-Aug-11 04:00N 69°57' E 020°06'611.1
2017-Aug-11 03:30N 69°60' E 020°21'611.5
2017-Aug-11 03:00N 70°02' E 020°36'5 9.8
2017-Aug-11 02:30N 70°04' E 020°48'2 3.1
2017-Aug-11 02:00N 70°05' E 020°46'0 0.0
2017-Aug-11 01:29N 70°05' E 020°46'4 7.6
2017-Aug-11 01:00N 70°09' E 020°48'510.4
2017-Aug-11 00:30N 70°12' E 021°00'510.4
2017-Aug-11 00:00N 70°15' E 021°13'510.4
2017-Aug-10 23:30N 70°18' E 021°26'510.4
2017-Aug-10 23:00N 70°22' E 021°36'5 9.6
2017-Aug-10 22:29N 70°24' E 021°49'510.6
2017-Aug-10 22:00N 70°24' E 022°05'510.4
2017-Aug-10 21:30N 70°24' E 022°21'510.5
2017-Aug-10 21:00N 70°24' E 022°36'510.2
2017-Aug-10 20:30N 70°23' E 022°50'5 9.2
2017-Aug-10 20:00N 70°21' E 023°03'1 1.6
2017-Aug-10 19:29N 70°21' E 023°05'0 0.0
2017-Aug-10 19:00N 70°21' E 023°04'0 0.0
2017-Aug-10 18:30N 70°21' E 023°05'1 1.3
2017-Aug-10 18:00N 70°21' E 023°03'4 8.7
2017-Aug-10 17:30N 70°22' E 022°51'611.4
2017-Aug-10 17:00N 70°24' E 022°35'612.5
2017-Aug-10 16:30N 70°24' E 022°16'612.1
2017-Aug-10 16:00N 70°24' E 021°58'612.2
2017-Aug-10 15:30N 70°23' E 021°40'612.7
2017-Aug-10 15:00N 70°19' E 021°27'612.5
2017-Aug-10 14:30N 70°15' E 021°13'611.8
2017-Aug-10 13:58N 70°09' E 021°05'612.1
2017-Aug-10 13:29N 70°03' E 021°02'2 3.2
2017-Aug-10 13:00N 70°02' E 020°59'0 0.0
2017-Aug-10 12:30N 70°02' E 020°59'1 2.2
2017-Aug-10 12:00N 70°02' E 021°02'4 8.8
2017-Aug-10 11:30N 69°57' E 020°59'5 9.8
2017-Aug-10 11:00N 69°55' E 020°46'4 7.4
2017-Aug-10 10:30N 69°55' E 020°36'0 0.0
2017-Aug-10 10:00N 69°55' E 020°36'1 2.1
2017-Aug-10 09:30N 69°55' E 020°39'612.6
2017-Aug-10 09:00N 69°56' E 020°56'510.9
2017-Aug-10 08:30N 70°01' E 021°03'2 3.0
2017-Aug-10 08:00N 70°02' E 020°59'0 0.0
2017-Aug-10 07:30N 70°02' E 020°59'4 7.0
2017-Aug-10 07:00N 69°59' E 021°03'5 9.7
2017-Aug-10 06:30N 69°56' E 020°53'5 9.4
2017-Aug-10 06:00N 69°55' E 020°39'1 2.4
2017-Aug-10 05:29N 69°55' E 020°36'0 0.0
2017-Aug-10 05:00N 69°55' E 020°36'0 0.0
2017-Aug-10 04:29N 69°55' E 020°36'0 1.0
2017-Aug-10 03:59N 69°55' E 020°37'4 8.4
2017-Aug-10 03:30N 69°59' E 020°42'4 8.3
2017-Aug-10 03:00N 70°03' E 020°47'3 5.7
2017-Aug-10 02:30N 70°05' E 020°46'0 0.0
2017-Aug-10 02:00N 70°05' E 020°46'2 4.2
2017-Aug-10 01:30N 70°08' E 020°46'5 9.7
2017-Aug-10 01:00N 70°11' E 020°56'510.6
2017-Aug-10 00:29N 70°14' E 021°09'510.7
2017-Aug-10 00:00N 70°17' E 021°22'510.3
2017-Aug-09 23:30N 70°21' E 021°33'510.1
2017-Aug-09 23:00N 70°24' E 021°44'510.3
2017-Aug-09 22:30N 70°24' E 021°59'510.5
2017-Aug-09 22:00N 70°24' E 022°15'510.9
2017-Aug-09 21:30N 70°24' E 022°31'510.5
2017-Aug-09 21:00N 70°24' E 022°47'5 9.7
2017-Aug-09 20:30N 70°20' E 022°57'1 1.1
2017-Aug-09 20:00N 70°21' E 022°59'0 0.0
2017-Aug-09 19:30N 70°21' E 022°59'0 0.0
2017-Aug-09 18:59N 70°21' E 022°59'0 0.5
2017-Aug-09 18:30N 70°21' E 022°58'611.6
2017-Aug-09 18:00N 70°15' E 023°03'611.5
2017-Aug-09 17:30N 70°09' E 023°05'611.2
2017-Aug-09 17:00N 70°04' E 023°07'611.3
2017-Aug-09 16:30N 69°58' E 023°09'2 3.7
2017-Aug-09 16:00N 69°57' E 023°06'0 0.0
2017-Aug-09 15:30N 69°57' E 023°06'2 3.5
2017-Aug-09 15:00N 69°58' E 023°09'511.0
2017-Aug-09 14:30N 70°03' E 023°07'611.2
2017-Aug-09 14:00N 70°09' E 023°07'511.0
2017-Aug-09 13:30N 70°14' E 023°11'510.7
2017-Aug-09 13:00N 70°18' E 023°21'510.6
2017-Aug-09 12:30N 70°23' E 023°31'510.1
2017-Aug-09 12:00N 70°26' E 023°41'510.2
2017-Aug-09 11:30N 70°30' E 023°52'5 9.9
2017-Aug-09 11:00N 70°33' E 024°04'510.6
2017-Aug-09 10:30N 70°38' E 024°10'510.4
2017-Aug-09 10:00N 70°43' E 024°10'510.3
2017-Aug-09 09:30N 70°48' E 024°08'510.4
2017-Aug-09 09:00N 70°53' E 024°12'510.9
2017-Aug-09 08:30N 70°57' E 024°22'510.5
2017-Aug-09 08:00N 71°01' E 024°33'510.9
2017-Aug-09 07:29N 71°00' E 024°49'510.6
2017-Aug-09 07:00N 70°58' E 025°03'5 9.1
2017-Aug-09 06:30N 70°53' E 024°57'0 0.0
2017-Aug-09 05:59N 70°53' E 024°57'0 0.0
2017-Aug-09 05:30N 70°53' E 024°57'0 0.1
2017-Aug-09 05:00N 70°53' E 024°57'0 0.0
2017-Aug-09 04:30N 70°53' E 024°57'2 3.7
2017-Aug-09 04:00N 70°55' E 025°01'4 8.9
2017-Aug-09 03:30N 70°59' E 024°58'612.6
2017-Aug-09 02:59N 71°01' E 024°40'510.9
2017-Aug-09 02:30N 70°59' E 024°25'713.3
2017-Aug-09 02:01N 70°54' E 024°11'612.7
2017-Aug-09 01:30N 70°50' E 023°56'612.1
2017-Aug-09 01:00N 70°46' E 023°42'612.0
2017-Aug-09 00:30N 70°41' E 023°33'2 4.7
2017-Aug-09 00:00N 70°40' E 023°40'0 0.0
2017-Aug-08 23:30N 70°40' E 023°40'0 0.0
2017-Aug-08 23:00N 70°40' E 023°40'0 0.0
2017-Aug-08 22:30N 70°40' E 023°40'4 7.2
2017-Aug-08 22:00N 70°39' E 023°30'611.9
2017-Aug-08 21:29N 70°37' E 023°13'612.3
2017-Aug-08 21:00N 70°32' E 023°00'611.7
2017-Aug-08 20:30N 70°30' E 022°45'612.1
2017-Aug-08 19:59N 70°28' E 022°27'612.6
2017-Aug-08 19:30N 70°27' E 022°09'612.5
2017-Aug-08 19:00N 70°25' E 021°51'611.8
2017-Aug-08 18:30N 70°22' E 021°36'612.1
2017-Aug-08 18:01N 70°18' E 021°24'611.9
2017-Aug-08 17:30N 70°14' E 021°10'612.0
2017-Aug-08 17:00N 70°08' E 021°06'611.9
2017-Aug-08 16:30N 70°02' E 021°02'1 1.7
2017-Aug-08 16:00N 70°02' E 020°59'0 0.0
2017-Aug-08 15:30N 70°02' E 020°59'3 6.9
2017-Aug-08 15:00N 69°59' E 021°05'510.1
2017-Aug-08 14:29N 69°56' E 020°54'510.5
2017-Aug-08 14:00N 69°55' E 020°40'1 2.5
2017-Aug-08 13:30N 69°55' E 020°36'0 0.0
2017-Aug-08 13:00N 69°55' E 020°36'0 0.0
2017-Aug-08 12:30N 69°55' E 020°36'0 0.1
2017-Aug-08 12:00N 69°55' E 020°36'511.0
2017-Aug-08 11:30N 69°55' E 020°52'612.2
2017-Aug-08 11:00N 69°60' E 021°05'3 6.0
2017-Aug-08 10:30N 70°02' E 020°59'0 0.0
2017-Aug-08 10:00N 70°02' E 020°59'2 3.4
2017-Aug-08 09:30N 70°01' E 021°04'5 9.4
2017-Aug-08 09:00N 69°57' E 020°58'5 9.8
2017-Aug-08 08:30N 69°55' E 020°45'3 6.3
2017-Aug-08 08:00N 69°55' E 020°36'0 0.0
2017-Aug-08 07:30N 69°55' E 020°36'0 0.0
2017-Aug-08 07:00N 69°55' E 020°36'2 3.2
2017-Aug-08 06:30N 69°56' E 020°39'510.6
2017-Aug-08 06:00N 70°01' E 020°42'5 9.1
2017-Aug-08 05:30N 70°05' E 020°46'0 0.1
2017-Aug-08 05:00N 70°05' E 020°46'0 0.4
2017-Aug-08 04:30N 70°06' E 020°46'510.1
2017-Aug-08 04:00N 70°10' E 020°52'510.6
2017-Aug-08 03:30N 70°13' E 021°05'510.8
2017-Aug-08 03:00N 70°16' E 021°18'510.2
2017-Aug-08 02:30N 70°19' E 021°30'5 9.6
2017-Aug-08 02:00N 70°23' E 021°39'5 9.3
2017-Aug-08 01:30N 70°24' E 021°52'510.2
2017-Aug-08 01:00N 70°24' E 022°08'510.6
2017-Aug-08 00:30N 70°24' E 022°24'510.5
2017-Aug-08 00:00N 70°24' E 022°39'5 9.2
2017-Aug-07 23:30N 70°22' E 022°52'3 5.3
2017-Aug-07 23:00N 70°21' E 022°59'0 0.0
2017-Aug-07 22:31N 70°21' E 022°59'0 0.2
2017-Aug-07 22:00N 70°21' E 022°58'611.5
2017-Aug-07 21:30N 70°15' E 023°02'612.2
2017-Aug-07 21:00N 70°09' E 023°05'612.5
2017-Aug-07 20:30N 70°03' E 023°07'611.6
2017-Aug-07 20:00N 69°57' E 023°07'1 1.4
2017-Aug-07 19:30N 69°57' E 023°06'0 0.0
2017-Aug-07 19:00N 69°57' E 023°06'3 6.1
2017-Aug-07 18:30N 69°60' E 023°09'5 9.9
2017-Aug-07 18:01N 70°04' E 023°07'5 9.7
2017-Aug-07 17:30N 70°09' E 023°07'510.1
2017-Aug-07 17:00N 70°14' E 023°12'510.1
2017-Aug-07 16:30N 70°18' E 023°21'5 9.4
2017-Aug-07 16:00N 70°22' E 023°29'5 9.3
2017-Aug-07 15:30N 70°25' E 023°38'5 9.3
2017-Aug-07 15:00N 70°29' E 023°47'4 8.7
2017-Aug-07 14:30N 70°31' E 023°59'5 9.2
2017-Aug-07 14:00N 70°35' E 024°07'5 9.7
2017-Aug-07 13:29N 70°39' E 024°11'510.1
2017-Aug-07 12:59N 70°44' E 024°10'5 9.6
2017-Aug-07 12:30N 70°49' E 024°08'4 9.0
2017-Aug-07 12:00N 70°53' E 024°13'4 9.0
2017-Aug-07 11:30N 70°57' E 024°21'5 9.4
2017-Aug-07 11:00N 71°01' E 024°30'4 8.4
2017-Aug-07 10:30N 71°01' E 024°43'510.2
2017-Aug-07 10:00N 70°59' E 024°58'4 8.3
2017-Aug-07 09:30N 70°55' E 025°02'2 4.7
2017-Aug-07 09:00N 70°53' E 024°57'0 0.0
2017-Aug-07 08:30N 70°53' E 024°57'1 1.7
2017-Aug-07 08:00N 70°54' E 024°58'611.6
2017-Aug-07 07:30N 70°58' E 025°12'511.0
2017-Aug-07 07:00N 70°57' E 025°28'612.5
2017-Aug-07 06:30N 70°56' E 025°47'612.3
2017-Aug-07 06:00N 70°58' E 026°05'611.9
2017-Aug-07 05:30N 70°60' E 026°23'611.9
2017-Aug-07 05:00N 71°01' E 026°40'611.6
2017-Aug-07 04:30N 71°04' E 026°57'611.7
2017-Aug-07 04:00N 71°06' E 027°13'611.8
2017-Aug-07 03:30N 71°08' E 027°30'511.0
2017-Aug-07 03:00N 71°09' E 027°47'611.4
2017-Aug-07 02:30N 71°08' E 028°04'510.7
2017-Aug-07 02:00N 71°06' E 028°20'611.3
2017-Aug-07 01:30N 71°04' E 028°35'  
Track history (hours):
 
Tides and Currents Weather Stations Pressure Air Temp Water Temp Dewpoint Dewpoint Depression Visibility Wind Speed Wind Dir Waves Ship Positions

Rostein

Last reported at 2017-Aug-17 01:30 UTC. Time now 2017-Aug-17 01:48 UTC.
Position N 71°01' E 024°41'.

Length 57 m; draft 4 m.

Type: Other ship. MMSI: 257210000.

Date/timePositionNaut miles runAvg speedWind from/ knotsBaromVisibWave heightAir tempDewpointWater temp
2017-Aug-17 01:30N 71°01' E 024°41'510.7
2017-Aug-17 01:00N 70°60' E 024°56'510.4
2017-Aug-17 00:30N 70°60' E 025°12'510.0
2017-Aug-17 00:00N 70°58' E 025°27'510.0
2017-Aug-16 23:30N 70°56' E 025°41'3 6.2
2017-Aug-16 23:00N 70°59' E 025°45'0 0.0
2017-Aug-16 22:30N 70°59' E 025°45'0 0.0
2017-Aug-16 22:00N 70°59' E 025°45'2 4.3
2017-Aug-16 21:30N 70°57' E 025°45'510.8
2017-Aug-16 21:00N 70°57' E 025°29'612.3
2017-Aug-16 20:30N 70°59' E 025°11'612.6
2017-Aug-16 20:00N 70°60' E 024°52'612.8
2017-Aug-16 19:30N 71°02' E 024°32'713.0
2017-Aug-16 18:59N 70°57' E 024°18'613.0
2017-Aug-16 18:30N 70°53' E 024°04'612.5
2017-Aug-16 18:00N 70°48' E 023°49'612.2
2017-Aug-16 17:30N 70°44' E 023°36'4 8.8
2017-Aug-16 17:00N 70°40' E 023°39'1 1.3
2017-Aug-16 16:30N 70°40' E 023°40'0 0.0
2017-Aug-16 16:00N 70°40' E 023°40'0 0.0
2017-Aug-16 15:30N 70°40' E 023°40'0 0.4
2017-Aug-16 15:00N 70°40' E 023°40'510.9
2017-Aug-16 14:30N 70°39' E 023°24'510.8
2017-Aug-16 14:00N 70°36' E 023°10'611.4
2017-Aug-16 13:30N 70°32' E 022°59'611.2
2017-Aug-16 13:00N 70°30' E 022°44'612.0
2017-Aug-16 12:30N 70°28' E 022°26'611.9
2017-Aug-16 12:00N 70°26' E 022°09'611.9
2017-Aug-16 11:30N 70°25' E 021°52'611.4
2017-Aug-16 11:00N 70°22' E 021°36'611.8
2017-Aug-16 10:30N 70°18' E 021°25'611.6
2017-Aug-16 10:00N 70°14' E 021°12'510.6
2017-Aug-16 09:30N 70°09' E 021°17'612.2
2017-Aug-16 09:00N 70°05' E 021°30'611.5
2017-Aug-16 08:30N 70°03' E 021°46'2 1.8
2017-Aug-16 07:14N 70°04' E 021°53'2 7.6
2017-Aug-16 07:00N 70°03' E 021°48'5 9.9
2017-Aug-16 06:29N 69°58' E 021°50'4 2.6
2017-Aug-16 05:05N 69°54' E 021°52'0 0.0
2017-Aug-16 05:00N 69°54' E 021°52'4 8.4
2017-Aug-16 04:30N 69°57' E 021°44'612.2
2017-Aug-16 04:00N 70°01' E 021°30'612.5
2017-Aug-16 03:30N 70°06' E 021°17'611.7
2017-Aug-16 03:00N 70°11' E 021°10'510.0
2017-Aug-16 02:30N 70°16' E 021°15'611.8
2017-Aug-16 02:00N 70°19' E 021°29'611.9
2017-Aug-16 01:30N 70°24' E 021°41'5 9.4
2017-Aug-16 01:00N 70°23' E 021°55'611.7
2017-Aug-16 00:30N 70°20' E 022°10'611.8
2017-Aug-16 00:00N 70°17' E 022°26'612.0
2017-Aug-15 23:30N 70°14' E 022°42'611.6
2017-Aug-15 23:00N 70°12' E 022°58'612.0
2017-Aug-15 22:30N 70°07' E 023°04'612.1
2017-Aug-15 22:00N 70°01' E 023°08'4 7.8
2017-Aug-15 21:30N 69°57' E 023°06'0 0.0
2017-Aug-15 21:00N 69°57' E 023°06'2 3.2
2017-Aug-15 20:30N 69°58' E 023°09'510.4
2017-Aug-15 20:00N 70°03' E 023°08'510.7
2017-Aug-15 19:30N 70°08' E 023°07'5 9.9
2017-Aug-15 19:00N 70°13' E 023°10'5 9.9
2017-Aug-15 18:30N 70°17' E 023°19'5 9.7
2017-Aug-15 18:00N 70°21' E 023°27'5 9.2
2017-Aug-15 17:30N 70°25' E 023°36'4 8.9
2017-Aug-15 17:00N 70°28' E 023°44'5 9.3
2017-Aug-15 16:27N 70°31' E 023°57'4 9.4
2017-Aug-15 16:00N 70°34' E 024°06'510.4
2017-Aug-15 15:30N 70°39' E 024°10'510.5
2017-Aug-15 15:00N 70°44' E 024°09'5 9.6
2017-Aug-15 14:30N 70°49' E 024°10'510.2
2017-Aug-15 14:00N 70°53' E 024°19'5 9.5
2017-Aug-15 13:30N 70°57' E 024°24'5 9.5
2017-Aug-15 13:00N 71°02' E 024°32'5 9.2
2017-Aug-15 12:30N 71°01' E 024°45'510.1
2017-Aug-15 11:59N 70°59' E 025°01'5 9.8
2017-Aug-15 11:30N 70°59' E 025°15'510.4
2017-Aug-15 11:00N 70°57' E 025°29'3 6.8
2017-Aug-15 10:30N 70°54' E 025°34'0 0.0
2017-Aug-15 10:00N 70°54' E 025°34'0 0.0
2017-Aug-15 09:30N 70°54' E 025°34'0 0.0
2017-Aug-15 09:00N 70°54' E 025°34'0 0.7
2017-Aug-15 08:30N 70°54' E 025°33'1 1.4
2017-Aug-15 08:00N 70°54' E 025°35'0 1.0
2017-Aug-15 07:30N 70°54' E 025°33'1 1.5
2017-Aug-15 07:00N 70°54' E 025°34'0 0.2
2017-Aug-15 06:30N 70°54' E 025°34'612.9
2017-Aug-15 06:00N 70°59' E 025°22'612.5
2017-Aug-15 05:30N 70°59' E 025°03'713.6
2017-Aug-15 05:00N 71°01' E 024°43'510.7
2017-Aug-15 04:30N 70°59' E 024°27'612.5
2017-Aug-15 04:00N 70°53' E 024°20'612.8
2017-Aug-15 03:30N 70°49' E 024°08'510.7
2017-Aug-15 03:00N 70°43' E 024°09'611.1
2017-Aug-15 02:30N 70°38' E 024°10'612.0
2017-Aug-15 02:00N 70°32' E 024°02'612.1
2017-Aug-15 01:30N 70°29' E 023°47'612.4
2017-Aug-15 01:01N 70°24' E 023°36'713.3
2017-Aug-15 00:31N 70°19' E 023°23'713.0
2017-Aug-15 00:00N 70°14' E 023°11'612.3
2017-Aug-14 23:30N 70°08' E 023°07'612.2
2017-Aug-14 23:00N 70°02' E 023°08'5 9.9
2017-Aug-14 22:30N 69°57' E 023°06'0 0.0
2017-Aug-14 22:01N 69°57' E 023°06'0 0.6
2017-Aug-14 21:30N 69°57' E 023°06'4 9.0
2017-Aug-14 21:00N 70°02' E 023°09'510.2
2017-Aug-14 20:30N 70°07' E 023°07'510.0
2017-Aug-14 20:00N 70°12' E 023°08'4 9.0
2017-Aug-14 19:30N 70°14' E 023°19'2 3.4
2017-Aug-14 19:00N 70°14' E 023°24'0 0.0
2017-Aug-14 18:30N 70°14' E 023°24'0 0.0
2017-Aug-14 18:00N 70°14' E 023°24'0 0.0
2017-Aug-14 17:30N 70°14' E 023°24'0 0.0
2017-Aug-14 17:00N 70°14' E 023°24'0 0.0
2017-Aug-14 16:30N 70°14' E 023°24'0 0.0
2017-Aug-14 16:00N 70°14' E 023°24'0 0.3
2017-Aug-14 15:31N 70°14' E 023°25'19 7.8
2017-Aug-14 13:07N 69°57' E 023°06'0 0.1
2017-Aug-14 13:00N 69°57' E 023°06'0 0.0
2017-Aug-14 12:30N 69°57' E 023°06'2 3.9
2017-Aug-14 12:00N 69°58' E 023°09'510.2
2017-Aug-14 11:30N 70°03' E 023°08'5 9.9
2017-Aug-14 11:00N 70°08' E 023°07'5 9.8
2017-Aug-14 10:30N 70°13' E 023°09'510.0
2017-Aug-14 10:00N 70°17' E 023°18'510.2
2017-Aug-14 09:30N 70°21' E 023°28'510.3
2017-Aug-14 09:00N 70°25' E 023°38'510.5
2017-Aug-14 08:30N 70°29' E 023°48'510.2
2017-Aug-14 08:00N 70°32' E 024°01'510.1
2017-Aug-14 07:30N 70°36' E 024°09'510.1
2017-Aug-14 07:00N 70°41' E 024°10'510.2
2017-Aug-14 06:30N 70°46' E 024°08'5 9.6
2017-Aug-14 06:00N 70°51' E 024°09'4 8.6
2017-Aug-14 05:30N 70°55' E 024°15'5 9.0
2017-Aug-14 05:00N 70°58' E 024°23'5 9.1
2017-Aug-14 04:30N 71°02' E 024°32'5 9.1
2017-Aug-14 04:00N 71°01' E 024°46'5 9.6
2017-Aug-14 03:31N 70°59' E 024°59'4 8.0
2017-Aug-14 03:00N 70°55' E 025°02'2 4.6
2017-Aug-14 02:30N 70°53' E 024°57'0 0.0
2017-Aug-14 02:00N 70°53' E 024°57'0 0.0
2017-Aug-14 01:30N 70°53' E 024°57'4 7.5
2017-Aug-14 01:00N 70°56' E 025°04'5 9.7
2017-Aug-14 00:30N 70°60' E 024°54'611.3
2017-Aug-14 00:00N 71°01' E 024°37'610.8
2017-Aug-13 23:30N 70°59' E 024°22'511.1
2017-Aug-13 23:00N 70°55' E 024°10'611.2
2017-Aug-13 22:30N 70°51' E 023°58'611.1
2017-Aug-13 22:00N 70°47' E 023°45'611.5
2017-Aug-13 21:31N 70°44' E 023°32'611.3
2017-Aug-13 21:00N 70°40' E 023°19'611.7
2017-Aug-13 20:31N 70°36' E 023°08'611.8
2017-Aug-13 20:00N 70°31' E 022°56'611.8
2017-Aug-13 19:30N 70°29' E 022°39'612.2
2017-Aug-13 19:00N 70°27' E 022°22'611.6
2017-Aug-13 18:30N 70°26' E 022°05'611.6
2017-Aug-13 18:00N 70°24' E 021°48'611.8
2017-Aug-13 17:30N 70°21' E 021°34'612.3
2017-Aug-13 17:00N 70°17' E 021°21'611.0
2017-Aug-13 16:29N 70°13' E 021°09'611.9
2017-Aug-13 16:00N 70°08' E 021°20'611.5
2017-Aug-13 15:31N 70°04' E 021°32'510.8
2017-Aug-13 15:00N 70°03' E 021°48'2 3.2
2017-Aug-13 14:30N 70°04' E 021°53'0 0.0
2017-Aug-13 14:01N 70°04' E 021°53'3 5.5
2017-Aug-13 13:26N 70°01' E 021°47'410.2
2017-Aug-13 13:00N 69°57' E 021°50'3 2.0
2017-Aug-13 11:26N 69°54' E 021°53'0 0.6
2017-Aug-13 10:56N 69°54' E 021°52'0 0.2
2017-Aug-13 10:28N 69°54' E 021°52'4 8.5
2017-Aug-13 10:00N 69°57' E 021°44'611.4
2017-Aug-13 09:30N 70°00' E 021°31'611.5
2017-Aug-13 09:00N 70°04' E 021°17'611.3
2017-Aug-13 08:30N 70°04' E 021°01'510.2
2017-Aug-13 08:00N 70°05' E 020°46'0 0.9
2017-Aug-13 07:30N 70°05' E 020°46'1 1.1
2017-Aug-13 07:00N 70°06' E 020°46'510.1
2017-Aug-13 06:30N 70°10' E 020°53'510.3
2017-Aug-13 06:00N 70°13' E 021°05'5 9.9
2017-Aug-13 05:30N 70°16' E 021°17'5 9.7
2017-Aug-13 05:00N 70°19' E 021°28'5 9.7
2017-Aug-13 04:30N 70°23' E 021°38'4 8.8
2017-Aug-13 04:00N 70°24' E 021°50'5 9.8
2017-Aug-13 03:30N 70°25' E 022°05'510.2
2017-Aug-13 03:00N 70°25' E 022°20'510.0
2017-Aug-13 02:30N 70°25' E 022°35'5 9.5
2017-Aug-13 01:59N 70°23' E 022°49'5 9.8
2017-Aug-13 01:30N 70°20' E 022°59'2 4.3
2017-Aug-13 01:00N 70°21' E 023°05'0 0.0
2017-Aug-13 00:30N 70°21' E 023°05'0 0.0
2017-Aug-13 00:00N 70°21' E 023°05'0 0.0
2017-Aug-12 23:30N 70°21' E 023°05'4 7.7
2017-Aug-12 23:00N 70°17' E 023°02'612.6
2017-Aug-12 22:30N 70°11' E 023°05'612.5
2017-Aug-12 22:00N 70°05' E 023°07'612.3
2017-Aug-12 21:30N 69°59' E 023°09'2 4.8
2017-Aug-12 21:00N 69°57' E 023°06'0 0.0
2017-Aug-12 20:30N 69°57' E 023°06'2 4.9
2017-Aug-12 20:00N 69°59' E 023°09'510.3
2017-Aug-12 19:30N 70°04' E 023°07'510.3
2017-Aug-12 19:00N 70°09' E 023°07'510.5
2017-Aug-12 18:30N 70°14' E 023°11'510.2
2017-Aug-12 18:00N 70°18' E 023°21'5 9.8
2017-Aug-12 17:30N 70°22' E 023°30'5 9.4
2017-Aug-12 17:00N 70°26' E 023°39'5 9.1
2017-Aug-12 16:30N 70°29' E 023°48'4 8.0
2017-Aug-12 15:58N 70°31' E 023°59'5 9.6
2017-Aug-12 15:30N 70°35' E 024°07'5 9.6
2017-Aug-12 15:00N 70°39' E 024°10'510.0
2017-Aug-12 14:30N 70°44' E 024°10'5 9.8
2017-Aug-12 14:00N 70°49' E 024°08'4 8.9
2017-Aug-12 13:30N 70°53' E 024°13'5 9.2
2017-Aug-12 13:01N 70°57' E 024°21'5 9.8
2017-Aug-12 12:30N 71°01' E 024°31'5 9.6
2017-Aug-12 12:00N 71°01' E 024°45'510.7
2017-Aug-12 11:30N 70°59' E 025°01'5 9.1
2017-Aug-12 11:00N 70°54' E 024°59'1 1.9
2017-Aug-12 10:30N 70°53' E 024°57'0 0.0
2017-Aug-12 10:00N 70°53' E 024°57'0 1.0
2017-Aug-12 09:30N 70°54' E 024°58'5 9.9
2017-Aug-12 09:00N 70°59' E 025°01'510.8
2017-Aug-12 08:30N 71°00' E 024°46'510.3
2017-Aug-12 08:00N 71°01' E 024°30'611.5
2017-Aug-12 07:30N 70°57' E 024°18'611.8
2017-Aug-12 07:00N 70°53' E 024°04'611.6
2017-Aug-12 06:29N 70°49' E 023°51'611.8
2017-Aug-12 06:00N 70°46' E 023°37'612.0
2017-Aug-12 05:31N 70°42' E 023°23'612.4
2017-Aug-12 05:00N 70°37' E 023°11'612.5
2017-Aug-12 04:30N 70°32' E 022°60'611.9
2017-Aug-12 04:00N 70°30' E 022°43'510.3
2017-Aug-12 03:30N 70°28' E 022°28'5 9.7
2017-Aug-12 03:00N 70°27' E 022°14'510.0
2017-Aug-12 02:30N 70°26' E 021°60'510.1
2017-Aug-12 02:00N 70°24' E 021°45'510.1
2017-Aug-12 01:30N 70°21' E 021°33'510.3
2017-Aug-12 01:00N 70°17' E 021°23'510.4
2017-Aug-12 00:30N 70°14' E 021°10'611.8
2017-Aug-12 00:00N 70°11' E 020°56'510.9
2017-Aug-11 23:30N 70°07' E 020°46'1 3.0
2017-Aug-11 23:00N 70°05' E 020°46'0 0.0
2017-Aug-11 22:30N 70°05' E 020°46'3 6.6
2017-Aug-11 22:01N 70°03' E 020°53'2 2.9
2017-Aug-11 21:29N 70°03' E 020°57'0 0.0
2017-Aug-11 21:00N 70°03' E 020°57'4 7.5
2017-Aug-11 20:31N 70°05' E 020°48'1 2.1
2017-Aug-11 20:01N 70°05' E 020°46'0 0.1
2017-Aug-11 19:30N 70°05' E 020°46'4 9.1
2017-Aug-11 19:00N 70°03' E 020°56'0 0.6
2017-Aug-11 18:29N 70°03' E 020°57'0 0.0
2017-Aug-11 18:00N 70°03' E 020°57'2 3.6
2017-Aug-11 17:30N 70°04' E 021°00'2 3.7
2017-Aug-11 17:00N 70°02' E 020°59'0 0.0
2017-Aug-11 16:30N 70°02' E 020°59'2 3.7
2017-Aug-11 16:00N 70°04' E 020°60'611.2
2017-Aug-11 15:30N 70°02' E 020°44'511.1
2017-Aug-11 15:00N 70°01' E 020°29'611.2
2017-Aug-11 14:30N 69°59' E 020°13'1110.8
2017-Aug-11 13:30N 69°52' E 019°48'510.5
2017-Aug-11 13:01N 69°50' E 019°35'510.8
2017-Aug-11 12:30N 69°48' E 019°21'510.7
2017-Aug-11 12:00N 69°47' E 019°05'611.9
2017-Aug-11 11:30N 69°51' E 018°54'510.7
2017-Aug-11 11:00N 69°54' E 018°40'510.0
2017-Aug-11 10:30N 69°49' E 018°36'510.9
2017-Aug-11 10:00N 69°48' E 018°21'4 7.7
2017-Aug-11 09:30N 69°45' E 018°15'0 0.0
2017-Aug-11 09:00N 69°45' E 018°15'0 0.0
2017-Aug-11 08:30N 69°45' E 018°15'2 3.8
2017-Aug-11 08:00N 69°47' E 018°17'511.0
2017-Aug-11 07:31N 69°49' E 018°32'5 9.5
2017-Aug-11 07:00N 69°53' E 018°39'5 9.5
2017-Aug-11 06:30N 69°52' E 018°52'713.4
2017-Aug-11 05:59N 69°47' E 019°06'611.7
2017-Aug-11 05:29N 69°48' E 019°23'611.8
2017-Aug-11 05:00N 69°50' E 019°39'611.6
2017-Aug-11 04:30N 69°53' E 019°53'611.7
2017-Aug-11 04:00N 69°57' E 020°06'611.1
2017-Aug-11 03:30N 69°60' E 020°21'611.5
2017-Aug-11 03:00N 70°02' E 020°36'5 9.8
2017-Aug-11 02:30N 70°04' E 020°48'2 3.1
2017-Aug-11 02:00N 70°05' E 020°46'0 0.0
2017-Aug-11 01:29N 70°05' E 020°46'4 7.6
2017-Aug-11 01:00N 70°09' E 020°48'510.4
2017-Aug-11 00:30N 70°12' E 021°00'510.4
2017-Aug-11 00:00N 70°15' E 021°13'510.4
2017-Aug-10 23:30N 70°18' E 021°26'510.4
2017-Aug-10 23:00N 70°22' E 021°36'5 9.6
2017-Aug-10 22:29N 70°24' E 021°49'510.6
2017-Aug-10 22:00N 70°24' E 022°05'510.4
2017-Aug-10 21:30N 70°24' E 022°21'510.5
2017-Aug-10 21:00N 70°24' E 022°36'510.2
2017-Aug-10 20:30N 70°23' E 022°50'5 9.2
2017-Aug-10 20:00N 70°21' E 023°03'1 1.6
2017-Aug-10 19:29N 70°21' E 023°05'0 0.0
2017-Aug-10 19:00N 70°21' E 023°04'0 0.0
2017-Aug-10 18:30N 70°21' E 023°05'1 1.3
2017-Aug-10 18:00N 70°21' E 023°03'4 8.7
2017-Aug-10 17:30N 70°22' E 022°51'611.4
2017-Aug-10 17:00N 70°24' E 022°35'612.5
2017-Aug-10 16:30N 70°24' E 022°16'612.1
2017-Aug-10 16:00N 70°24' E 021°58'612.2
2017-Aug-10 15:30N 70°23' E 021°40'612.7
2017-Aug-10 15:00N 70°19' E 021°27'612.5
2017-Aug-10 14:30N 70°15' E 021°13'611.8
2017-Aug-10 13:58N 70°09' E 021°05'612.1
2017-Aug-10 13:29N 70°03' E 021°02'2 3.2
2017-Aug-10 13:00N 70°02' E 020°59'0 0.0
2017-Aug-10 12:30N 70°02' E 020°59'1 2.2
2017-Aug-10 12:00N 70°02' E 021°02'4 8.8
2017-Aug-10 11:30N 69°57' E 020°59'5 9.8
2017-Aug-10 11:00N 69°55' E 020°46'4 7.4
2017-Aug-10 10:30N 69°55' E 020°36'0 0.0
2017-Aug-10 10:00N 69°55' E 020°36'1 2.1
2017-Aug-10 09:30N 69°55' E 020°39'612.6
2017-Aug-10 09:00N 69°56' E 020°56'510.9
2017-Aug-10 08:30N 70°01' E 021°03'2 3.0
2017-Aug-10 08:00N 70°02' E 020°59'0 0.0
2017-Aug-10 07:30N 70°02' E 020°59'4 7.0
2017-Aug-10 07:00N 69°59' E 021°03'5 9.7
2017-Aug-10 06:30N 69°56' E 020°53'5 9.4
2017-Aug-10 06:00N 69°55' E 020°39'1 2.4
2017-Aug-10 05:29N 69°55' E 020°36'0 0.0
2017-Aug-10 05:00N 69°55' E 020°36'0 0.0
2017-Aug-10 04:29N 69°55' E 020°36'0 1.0
2017-Aug-10 03:59N 69°55' E 020°37'4 8.4
2017-Aug-10 03:30N 69°59' E 020°42'4 8.3
2017-Aug-10 03:00N 70°03' E 020°47'3 5.7
2017-Aug-10 02:30N 70°05' E 020°46'0 0.0
2017-Aug-10 02:00N 70°05' E 020°46'2 4.2
2017-Aug-10 01:30N 70°08' E 020°46'5 9.7
2017-Aug-10 01:00N 70°11' E 020°56'510.6
2017-Aug-10 00:29N 70°14' E 021°09'510.7
2017-Aug-10 00:00N 70°17' E 021°22'510.3
2017-Aug-09 23:30N 70°21' E 021°33'510.1
2017-Aug-09 23:00N 70°24' E 021°44'510.3
2017-Aug-09 22:30N 70°24' E 021°59'510.5
2017-Aug-09 22:00N 70°24' E 022°15'510.9
2017-Aug-09 21:30N 70°24' E 022°31'510.5
2017-Aug-09 21:00N 70°24' E 022°47'5 9.7
2017-Aug-09 20:30N 70°20' E 022°57'1 1.1
2017-Aug-09 20:00N 70°21' E 022°59'0 0.0
2017-Aug-09 19:30N 70°21' E 022°59'0 0.0
2017-Aug-09 18:59N 70°21' E 022°59'0 0.5
2017-Aug-09 18:30N 70°21' E 022°58'611.6
2017-Aug-09 18:00N 70°15' E 023°03'611.5
2017-Aug-09 17:30N 70°09' E 023°05'611.2
2017-Aug-09 17:00N 70°04' E 023°07'611.3
2017-Aug-09 16:30N 69°58' E 023°09'2 3.7
2017-Aug-09 16:00N 69°57' E 023°06'0 0.0
2017-Aug-09 15:30N 69°57' E 023°06'2 3.5
2017-Aug-09 15:00N 69°58' E 023°09'511.0
2017-Aug-09 14:30N 70°03' E 023°07'611.2
2017-Aug-09 14:00N 70°09' E 023°07'511.0
2017-Aug-09 13:30N 70°14' E 023°11'510.7
2017-Aug-09 13:00N 70°18' E 023°21'510.6
2017-Aug-09 12:30N 70°23' E 023°31'510.1
2017-Aug-09 12:00N 70°26' E 023°41'510.2
2017-Aug-09 11:30N 70°30' E 023°52'5 9.9
2017-Aug-09 11:00N 70°33' E 024°04'510.6
2017-Aug-09 10:30N 70°38' E 024°10'510.4
2017-Aug-09 10:00N 70°43' E 024°10'510.3
2017-Aug-09 09:30N 70°48' E 024°08'510.4
2017-Aug-09 09:00N 70°53' E 024°12'510.9
2017-Aug-09 08:30N 70°57' E 024°22'510.5
2017-Aug-09 08:00N 71°01' E 024°33'510.9
2017-Aug-09 07:29N 71°00' E 024°49'510.6
2017-Aug-09 07:00N 70°58' E 025°03'5 9.1
2017-Aug-09 06:30N 70°53' E 024°57'0 0.0
2017-Aug-09 05:59N 70°53' E 024°57'0 0.0
2017-Aug-09 05:30N 70°53' E 024°57'0 0.1
2017-Aug-09 05:00N 70°53' E 024°57'0 0.0
2017-Aug-09 04:30N 70°53' E 024°57'2 3.7
2017-Aug-09 04:00N 70°55' E 025°01'4 8.9
2017-Aug-09 03:30N 70°59' E 024°58'612.6
2017-Aug-09 02:59N 71°01' E 024°40'510.9
2017-Aug-09 02:30N 70°59' E 024°25'713.3
2017-Aug-09 02:01N 70°54' E 024°11'612.7
2017-Aug-09 01:30N 70°50' E 023°56'612.1
2017-Aug-09 01:00N 70°46' E 023°42'612.0
2017-Aug-09 00:30N 70°41' E 023°33'2 4.7
2017-Aug-09 00:00N 70°40' E 023°40'0 0.0
2017-Aug-08 23:30N 70°40' E 023°40'0 0.0
2017-Aug-08 23:00N 70°40' E 023°40'0 0.0
2017-Aug-08 22:30N 70°40' E 023°40'4 7.2
2017-Aug-08 22:00N 70°39' E 023°30'611.9
2017-Aug-08 21:29N 70°37' E 023°13'612.3
2017-Aug-08 21:00N 70°32' E 023°00'611.7
2017-Aug-08 20:30N 70°30' E 022°45'612.1
2017-Aug-08 19:59N 70°28' E 022°27'612.6
2017-Aug-08 19:30N 70°27' E 022°09'612.5
2017-Aug-08 19:00N 70°25' E 021°51'611.8
2017-Aug-08 18:30N 70°22' E 021°36'612.1
2017-Aug-08 18:01N 70°18' E 021°24'611.9
2017-Aug-08 17:30N 70°14' E 021°10'612.0
2017-Aug-08 17:00N 70°08' E 021°06'611.9
2017-Aug-08 16:30N 70°02' E 021°02'1 1.7
2017-Aug-08 16:00N 70°02' E 020°59'0 0.0
2017-Aug-08 15:30N 70°02' E 020°59'3 6.9
2017-Aug-08 15:00N 69°59' E 021°05'510.1
2017-Aug-08 14:29N 69°56' E 020°54'510.5
2017-Aug-08 14:00N 69°55' E 020°40'1 2.5
2017-Aug-08 13:30N 69°55' E 020°36'0 0.0
2017-Aug-08 13:00N 69°55' E 020°36'0 0.0
2017-Aug-08 12:30N 69°55' E 020°36'0 0.1
2017-Aug-08 12:00N 69°55' E 020°36'511.0
2017-Aug-08 11:30N 69°55' E 020°52'612.2
2017-Aug-08 11:00N 69°60' E 021°05'3 6.0
2017-Aug-08 10:30N 70°02' E 020°59'0 0.0
2017-Aug-08 10:00N 70°02' E 020°59'2 3.4
2017-Aug-08 09:30N 70°01' E 021°04'5 9.4
2017-Aug-08 09:00N 69°57' E 020°58'5 9.8
2017-Aug-08 08:30N 69°55' E 020°45'3 6.3
2017-Aug-08 08:00N 69°55' E 020°36'0 0.0
2017-Aug-08 07:30N 69°55' E 020°36'0 0.0
2017-Aug-08 07:00N 69°55' E 020°36'2 3.2
2017-Aug-08 06:30N 69°56' E 020°39'510.6
2017-Aug-08 06:00N 70°01' E 020°42'5 9.1
2017-Aug-08 05:30N 70°05' E 020°46'0 0.1
2017-Aug-08 05:00N 70°05' E 020°46'0 0.4
2017-Aug-08 04:30N 70°06' E 020°46'510.1
2017-Aug-08 04:00N 70°10' E 020°52'510.6
2017-Aug-08 03:30N 70°13' E 021°05'510.8
2017-Aug-08 03:00N 70°16' E 021°18'510.2
2017-Aug-08 02:30N 70°19' E 021°30'5 9.6
2017-Aug-08 02:00N 70°23' E 021°39'5 9.3
2017-Aug-08 01:30N 70°24' E 021°52'510.2
2017-Aug-08 01:00N 70°24' E 022°08'510.6
2017-Aug-08 00:30N 70°24' E 022°24'510.5
2017-Aug-08 00:00N 70°24' E 022°39'5 9.2
2017-Aug-07 23:30N 70°22' E 022°52'3 5.3
2017-Aug-07 23:00N 70°21' E 022°59'0 0.0
2017-Aug-07 22:31N 70°21' E 022°59'0 0.2
2017-Aug-07 22:00N 70°21' E 022°58'611.5
2017-Aug-07 21:30N 70°15' E 023°02'612.2
2017-Aug-07 21:00N 70°09' E 023°05'612.5
2017-Aug-07 20:30N 70°03' E 023°07'611.6
2017-Aug-07 20:00N 69°57' E 023°07'1 1.4
2017-Aug-07 19:30N 69°57' E 023°06'0 0.0
2017-Aug-07 19:00N 69°57' E 023°06'3 6.1
2017-Aug-07 18:30N 69°60' E 023°09'5 9.9
2017-Aug-07 18:01N 70°04' E 023°07'5 9.7
2017-Aug-07 17:30N 70°09' E 023°07'510.1
2017-Aug-07 17:00N 70°14' E 023°12'510.1
2017-Aug-07 16:30N 70°18' E 023°21'5 9.4
2017-Aug-07 16:00N 70°22' E 023°29'5 9.3
2017-Aug-07 15:30N 70°25' E 023°38'5 9.3
2017-Aug-07 15:00N 70°29' E 023°47'4 8.7
2017-Aug-07 14:30N 70°31' E 023°59'5 9.2
2017-Aug-07 14:00N 70°35' E 024°07'5 9.7
2017-Aug-07 13:29N 70°39' E 024°11'510.1
2017-Aug-07 12:59N 70°44' E 024°10'5 9.6
2017-Aug-07 12:30N 70°49' E 024°08'4 9.0
2017-Aug-07 12:00N 70°53' E 024°13'4 9.0
2017-Aug-07 11:30N 70°57' E 024°21'5 9.4
2017-Aug-07 11:00N 71°01' E 024°30'4 8.4
2017-Aug-07 10:30N 71°01' E 024°43'510.2
2017-Aug-07 10:00N 70°59' E 024°58'4 8.3
2017-Aug-07 09:30N 70°55' E 025°02'2 4.7
2017-Aug-07 09:00N 70°53' E 024°57'0 0.0
2017-Aug-07 08:30N 70°53' E 024°57'1 1.7
2017-Aug-07 08:00N 70°54' E 024°58'611.6
2017-Aug-07 07:30N 70°58' E 025°12'511.0
2017-Aug-07 07:00N 70°57' E 025°28'612.5
2017-Aug-07 06:30N 70°56' E 025°47'612.3
2017-Aug-07 06:00N 70°58' E 026°05'611.9
2017-Aug-07 05:30N 70°60' E 026°23'611.9
2017-Aug-07 05:00N 71°01' E 026°40'611.6
2017-Aug-07 04:30N 71°04' E 026°57'611.7
2017-Aug-07 04:00N 71°06' E 027°13'611.8
2017-Aug-07 03:30N 71°08' E 027°30'511.0
2017-Aug-07 03:00N 71°09' E 027°47'611.4
2017-Aug-07 02:30N 71°08' E 028°04'510.7
2017-Aug-07 02:00N 71°06' E 028°20'611.3
2017-Aug-07 01:30N 71°04' E 028°35'  

Dump ship's entire track history